createdAt,value
2022-12-18T00:00:59.294Z,74.68
2022-12-18T00:03:30.015Z,74.13
2022-12-18T00:06:00.427Z,74.09
2022-12-18T00:08:30.756Z,73.74
2022-12-18T00:11:08.905Z,72.68
2022-12-18T00:13:39.925Z,72.31
2022-12-18T00:16:16.189Z,72.20
2022-12-18T00:18:46.992Z,72.06
2022-12-18T00:21:17.931Z,72.17
2022-12-18T00:23:50.391Z,72.38
2022-12-18T00:26:23.521Z,72.89
2022-12-18T00:29:02.445Z,72.91
2022-12-18T00:31:39.163Z,72.83
2022-12-18T00:34:09.632Z,72.88
2022-12-18T00:36:43.125Z,73.30
2022-12-18T00:39:20.913Z,73.23
2022-12-18T00:42:09.273Z,72.71
2022-12-18T00:44:39.610Z,72.41
2022-12-18T00:47:13.559Z,72.33
2022-12-18T00:49:43.926Z,72.78
2022-12-18T00:52:14.213Z,72.91
2022-12-18T00:54:44.524Z,72.78
2022-12-18T00:57:14.800Z,72.59
2022-12-18T00:59:45.320Z,72.09
2022-12-18T01:02:18.864Z,71.66
2022-12-18T01:04:49.314Z,71.75
2022-12-18T01:07:23.553Z,71.73
2022-12-18T01:09:53.873Z,72.00
2022-12-18T01:12:24.167Z,72.19
2022-12-18T01:14:54.527Z,72.42
2022-12-18T01:17:27.543Z,72.18
2022-12-18T01:19:57.808Z,71.84
2022-12-18T01:22:28.401Z,71.74
2022-12-18T01:24:58.762Z,71.89
2022-12-18T01:27:29.089Z,72.40
2022-12-18T01:29:59.839Z,73.16
2022-12-18T01:32:34.417Z,73.55
2022-12-18T01:35:06.758Z,73.32
2022-12-18T01:37:37.228Z,72.96
2022-12-18T01:40:10.295Z,72.59
2022-12-18T01:42:41.000Z,71.93
2022-12-18T01:45:27.110Z,71.20
2022-12-18T01:48:02.771Z,70.71
2022-12-18T01:50:38.015Z,70.94
2022-12-18T01:53:17.278Z,71.01
2022-12-18T01:55:51.293Z,71.04
2022-12-18T01:58:24.304Z,70.76
2022-12-18T02:00:54.718Z,70.81
2022-12-18T02:03:27.787Z,70.83
2022-12-18T02:06:08.220Z,71.18
2022-12-18T02:08:45.946Z,71.83
2022-12-18T02:11:24.258Z,72.07
2022-12-18T02:14:06.368Z,72.22
2022-12-18T02:16:48.784Z,72.28
2022-12-18T02:19:41.663Z,72.10
2022-12-18T02:22:30.860Z,71.61
2022-12-18T02:25:20.754Z,71.19
2022-12-18T02:27:56.850Z,71.00
2022-12-18T02:30:27.838Z,70.90
2022-12-18T02:33:00.091Z,70.60
2022-12-18T02:35:33.583Z,70.35
2022-12-18T02:38:07.524Z,70.17
2022-12-18T02:40:42.061Z,70.25
2022-12-18T02:43:18.417Z,70.38
2022-12-18T02:45:56.371Z,70.55
2022-12-18T02:48:32.355Z,70.86
2022-12-18T02:51:12.044Z,70.49
2022-12-18T02:53:52.388Z,70.02
2022-12-18T02:56:28.057Z,70.30
2022-12-18T02:59:04.801Z,70.06
2022-12-18T03:01:54.765Z,70.21
2022-12-18T03:04:31.100Z,70.85
2022-12-18T03:07:07.455Z,71.51
2022-12-18T03:09:43.583Z,71.97
2022-12-18T03:12:28.827Z,71.95
2022-12-18T03:15:12.064Z,71.67
2022-12-18T03:17:56.345Z,71.18
2022-12-18T03:20:32.991Z,71.39
2022-12-18T03:23:14.247Z,71.54
2022-12-18T03:25:52.001Z,71.90
2022-12-18T03:28:26.433Z,70.93
2022-12-18T03:31:08.734Z,70.35
2022-12-18T03:33:45.065Z,70.06
2022-12-18T03:36:15.870Z,69.75
2022-12-18T03:38:46.385Z,69.61
2022-12-18T03:41:27.062Z,69.80
2022-12-18T03:44:25.264Z,69.68
2022-12-18T03:47:07.602Z,69.95
2022-12-18T03:49:44.184Z,70.36
2022-12-18T03:52:20.856Z,70.58
2022-12-18T03:54:51.704Z,70.94
2022-12-18T03:57:27.149Z,70.99
2022-12-18T04:00:04.591Z,71.28
2022-12-18T04:02:53.461Z,71.48
2022-12-18T04:05:31.056Z,70.88
2022-12-18T04:08:02.443Z,70.45
2022-12-18T04:10:34.113Z,70.57
2022-12-18T04:13:05.793Z,70.52
2022-12-18T04:15:39.612Z,70.17
2022-12-18T04:18:16.286Z,69.84
2022-12-18T04:20:47.520Z,70.04
2022-12-18T04:23:18.425Z,69.43
2022-12-18T04:25:51.088Z,69.22
2022-12-18T04:28:34.517Z,69.02
2022-12-18T04:31:05.041Z,68.45
2022-12-18T04:33:38.429Z,68.02
2022-12-18T04:36:10.824Z,68.07
2022-12-18T04:38:41.703Z,68.17
2022-12-18T04:41:17.332Z,68.34
2022-12-18T04:43:50.783Z,68.26
2022-12-18T04:46:21.194Z,68.54
2022-12-18T04:48:54.348Z,68.90
2022-12-18T04:51:26.861Z,68.87
2022-12-18T04:53:57.965Z,69.24
2022-12-18T04:56:28.467Z,69.19
2022-12-18T04:58:58.878Z,69.58
2022-12-18T05:01:34.213Z,69.71
2022-12-18T05:04:08.234Z,69.38
2022-12-18T05:06:38.604Z,69.01
2022-12-18T05:09:09.027Z,68.90
2022-12-18T05:11:40.244Z,68.86
2022-12-18T05:14:10.645Z,69.00
2022-12-18T05:16:40.974Z,69.04
2022-12-18T05:19:13.933Z,69.07
2022-12-18T05:21:44.703Z,69.23
2022-12-18T05:24:16.517Z,69.06
2022-12-18T05:26:46.915Z,69.01
2022-12-18T05:29:17.469Z,69.18
2022-12-18T05:31:47.927Z,68.92
2022-12-18T05:34:21.076Z,69.32
2022-12-18T05:36:51.467Z,69.37
2022-12-18T05:39:21.875Z,69.36
2022-12-18T05:41:52.201Z,69.57
2022-12-18T05:44:22.513Z,69.75
2022-12-18T05:46:52.949Z,70.25
2022-12-18T05:49:26.028Z,70.57
2022-12-18T05:51:56.291Z,70.51
2022-12-18T05:54:26.630Z,70.14
2022-12-18T05:56:57.066Z,69.86
2022-12-18T05:59:27.641Z,69.79
2022-12-18T06:01:58.070Z,69.75
2022-12-18T06:04:32.425Z,69.63
2022-12-18T06:07:02.912Z,70.17
2022-12-18T06:09:34.000Z,71.09
2022-12-18T06:12:04.404Z,70.22
2022-12-18T06:14:34.704Z,70.43
2022-12-18T06:17:05.065Z,70.55
2022-12-18T06:19:37.937Z,70.83
2022-12-18T06:22:08.270Z,71.15
2022-12-18T06:24:38.581Z,71.31
2022-12-18T06:27:08.896Z,70.79
2022-12-18T06:29:39.141Z,70.21
2022-12-18T06:32:09.971Z,70.14
2022-12-18T06:34:44.472Z,69.39
2022-12-18T06:37:14.764Z,69.51
2022-12-18T06:39:45.037Z,69.16
2022-12-18T06:42:16.010Z,68.98
2022-12-18T06:44:46.421Z,69.49
2022-12-18T06:47:16.804Z,69.74
2022-12-18T06:49:50.235Z,69.86
2022-12-18T06:52:20.583Z,71.40
2022-12-18T06:54:50.971Z,72.70
2022-12-18T06:57:22.827Z,74.31
2022-12-18T06:59:53.219Z,75.81
2022-12-18T07:02:23.657Z,76.52
2022-12-18T07:04:56.676Z,77.46
2022-12-18T07:07:27.116Z,77.79
2022-12-18T07:09:57.456Z,77.95
2022-12-18T07:12:27.779Z,77.64
2022-12-18T07:14:58.103Z,77.29
2022-12-18T07:17:28.528Z,77.07
2022-12-18T07:20:01.905Z,76.98
2022-12-18T07:22:32.217Z,76.75
2022-12-18T07:25:02.472Z,76.69
2022-12-18T07:27:32.791Z,76.36
2022-12-18T07:30:03.032Z,76.15
2022-12-18T07:32:35.565Z,76.19
2022-12-18T07:35:09.387Z,76.47
2022-12-18T07:37:39.708Z,76.51
2022-12-18T07:40:12.573Z,76.14
2022-12-18T07:42:43.237Z,75.77
2022-12-18T07:45:14.454Z,75.46
2022-12-18T07:47:45.079Z,75.23
2022-12-18T07:50:18.482Z,75.35
2022-12-18T07:52:48.790Z,74.74
2022-12-18T07:55:19.431Z,74.84
2022-12-18T07:57:51.821Z,74.49
2022-12-18T08:00:23.408Z,74.39
2022-12-18T08:02:54.483Z,74.28
2022-12-18T08:05:27.413Z,74.38
2022-12-18T08:07:58.393Z,74.21
2022-12-18T08:10:28.721Z,73.91
2022-12-18T08:13:04.562Z,73.96
2022-12-18T08:15:35.457Z,73.45
2022-12-18T08:18:08.107Z,72.99
2022-12-18T08:20:44.326Z,72.65
2022-12-18T08:23:14.628Z,72.25
2022-12-18T08:25:45.104Z,71.71
2022-12-18T08:28:15.842Z,71.25
2022-12-18T08:30:46.431Z,70.88
2022-12-18T08:33:17.220Z,70.11
2022-12-18T08:35:50.257Z,69.35
2022-12-18T08:38:20.730Z,68.31
2022-12-18T08:40:51.473Z,67.78
2022-12-18T08:43:43.344Z,66.64
2022-12-18T08:46:13.925Z,65.24
2022-12-18T08:48:44.780Z,64.42
2022-12-18T08:51:19.955Z,64.08
2022-12-18T08:53:50.868Z,64.15
2022-12-18T08:56:21.379Z,62.73
2022-12-18T08:58:51.678Z,61.47
2022-12-18T09:01:22.337Z,60.39
2022-12-18T09:03:53.685Z,58.93
2022-12-18T09:06:27.667Z,59.29
2022-12-18T09:08:57.996Z,59.40
2022-12-18T09:11:30.842Z,58.57
2022-12-18T09:14:03.324Z,58.22
2022-12-18T09:16:36.129Z,57.19
2022-12-18T09:19:08.736Z,55.76
2022-12-18T09:21:47.706Z,52.85
2022-12-18T09:24:21.985Z,49.97
2022-12-18T09:26:57.439Z,47.45
2022-12-18T09:29:28.450Z,46.63
2022-12-18T09:31:58.976Z,44.98
2022-12-18T09:34:29.372Z,44.46
2022-12-18T09:37:06.801Z,44.45
2022-12-18T09:39:47.888Z,43.73
2022-12-18T09:42:23.981Z,42.48
2022-12-18T09:44:58.631Z,42.88
2022-12-18T09:47:34.639Z,43.29
2022-12-18T09:50:14.249Z,43.87
2022-12-18T09:52:55.783Z,45.00
2022-12-18T09:55:37.255Z,45.68
2022-12-18T09:58:17.279Z,45.98
2022-12-18T10:00:48.256Z,45.96
2022-12-18T10:03:19.842Z,45.53
2022-12-18T10:06:03.071Z,45.50
2022-12-18T10:08:47.954Z,44.54
2022-12-18T10:11:36.530Z,43.16
2022-12-18T10:14:14.881Z,41.57
2022-12-18T10:16:59.418Z,41.17
2022-12-18T10:20:02.136Z,40.31
2022-12-18T10:22:47.725Z,40.51
2022-12-18T10:25:28.816Z,41.18
2022-12-18T10:28:04.770Z,42.07
2022-12-18T10:30:35.049Z,42.40
2022-12-18T10:33:05.865Z,42.71
2022-12-18T10:35:36.306Z,42.50
2022-12-18T10:38:10.639Z,42.04
2022-12-18T10:40:57.829Z,42.20
2022-12-18T10:43:31.212Z,41.65
2022-12-18T10:46:21.332Z,41.66
2022-12-18T10:49:00.355Z,41.31
2022-12-18T10:51:34.871Z,41.76
2022-12-18T10:54:08.632Z,41.80
2022-12-18T10:56:44.264Z,41.99
2022-12-18T10:59:17.663Z,41.07
2022-12-18T11:01:56.079Z,39.81
2022-12-18T11:04:28.752Z,38.81
2022-12-18T11:07:04.013Z,39.47
2022-12-18T11:09:36.372Z,39.39
2022-12-18T11:12:19.934Z,38.39
2022-12-18T11:14:53.129Z,37.32
2022-12-18T11:17:27.140Z,35.60
2022-12-18T11:20:00.194Z,34.06
2022-12-18T11:22:33.376Z,33.26
2022-12-18T11:28:03.181Z,30.65
2022-12-18T11:30:35.965Z,29.44
2022-12-18T11:33:12.477Z,28.36
2022-12-18T11:35:52.527Z,27.48
2022-12-18T11:38:27.678Z,27.34
2022-12-18T11:41:04.219Z,26.67
2022-12-18T11:43:44.836Z,26.40
2022-12-18T11:46:20.157Z,25.99
2022-12-18T11:48:58.097Z,27.24
2022-12-18T11:51:38.543Z,26.96
2022-12-18T11:54:17.545Z,26.55
2022-12-18T11:56:55.279Z,27.95
2022-12-18T11:59:39.862Z,29.23
2022-12-18T12:02:37.836Z,30.48
2022-12-18T12:05:29.829Z,31.85
2022-12-18T12:08:13.954Z,33.36
2022-12-18T12:10:59.698Z,33.73
2022-12-18T12:13:47.573Z,34.95
2022-12-18T12:16:29.469Z,35.48
2022-12-18T12:19:19.801Z,36.27
2022-12-18T12:21:59.477Z,35.61
2022-12-18T12:24:45.854Z,35.06
2022-12-18T12:27:28.847Z,34.24
2022-12-18T12:30:09.076Z,32.77
2022-12-18T12:33:08.121Z,31.75
2022-12-18T12:35:56.116Z,31.95
2022-12-18T12:38:32.898Z,32.20
2022-12-18T12:41:28.245Z,31.26
2022-12-18T12:43:59.941Z,28.70
2022-12-18T12:46:36.672Z,28.92
2022-12-18T12:49:17.576Z,29.27
2022-12-18T12:51:56.250Z,28.24
2022-12-18T12:54:31.401Z,27.89
2022-12-18T12:57:09.708Z,29.13
2022-12-18T12:59:50.251Z,29.76
2022-12-18T13:02:28.349Z,30.83
2022-12-18T13:05:09.174Z,31.53
2022-12-18T13:07:45.118Z,32.38
2022-12-18T13:10:38.267Z,33.60
2022-12-18T13:13:10.589Z,34.60
2022-12-18T13:15:47.908Z,35.75
2022-12-18T13:18:24.245Z,36.44
2022-12-18T13:21:22.134Z,36.50
2022-12-18T13:23:52.582Z,37.32
2022-12-18T13:26:43.989Z,38.50
2022-12-18T13:29:14.063Z,39.54
2022-12-18T13:32:23.968Z,39.96
2022-12-18T13:35:42.797Z,41.06
2022-12-18T13:38:36.525Z,41.52
2022-12-18T13:41:08.690Z,41.83
2022-12-18T13:43:46.311Z,42.30
2022-12-18T13:46:31.253Z,42.75
2022-12-18T13:49:09.101Z,42.92
2022-12-18T13:51:40.097Z,42.92
2022-12-18T13:54:23.699Z,44.25
2022-12-18T13:56:54.176Z,44.57
2022-12-18T13:59:29.576Z,45.09
2022-12-18T14:02:04.278Z,45.92
2022-12-18T14:04:38.237Z,45.69
2022-12-18T14:07:11.766Z,46.03
2022-12-18T14:09:50.224Z,46.29
2022-12-18T14:12:36.500Z,46.34
2022-12-18T14:15:10.716Z,46.95
2022-12-18T14:17:44.089Z,47.17
2022-12-18T14:20:18.919Z,47.95
2022-12-18T14:22:51.532Z,47.41
2022-12-18T14:25:28.447Z,47.79
2022-12-18T14:28:19.031Z,47.52
2022-12-18T14:30:50.357Z,47.35
2022-12-18T14:33:22.603Z,47.07
2022-12-18T14:36:02.656Z,47.45
2022-12-18T14:38:35.054Z,47.37
2022-12-18T14:41:12.888Z,47.36
2022-12-18T14:43:45.553Z,47.35
2022-12-18T14:46:34.345Z,47.84
2022-12-18T14:49:07.857Z,48.23
2022-12-18T14:51:40.443Z,47.40
2022-12-18T14:54:21.219Z,47.61
2022-12-18T14:57:01.687Z,48.10
2022-12-18T14:59:33.799Z,48.33
2022-12-18T15:02:14.867Z,48.37
2022-12-18T15:04:46.117Z,48.67
2022-12-18T15:07:21.202Z,48.73
2022-12-18T15:10:14.783Z,48.44
2022-12-18T15:12:49.770Z,48.60
2022-12-18T15:15:52.392Z,48.89
2022-12-18T15:18:24.591Z,48.99
2022-12-18T15:20:56.986Z,48.76
2022-12-18T15:23:31.460Z,49.33
2022-12-18T15:26:04.322Z,49.58
2022-12-18T15:28:41.539Z,49.55
2022-12-18T15:31:28.217Z,49.54
2022-12-18T15:34:23.391Z,49.73
2022-12-18T15:36:55.255Z,50.45
2022-12-18T15:39:25.665Z,49.99
2022-12-18T15:42:08.734Z,49.74
2022-12-18T15:44:41.750Z,49.59
2022-12-18T15:47:16.855Z,49.26
2022-12-18T15:49:47.259Z,49.16
2022-12-18T15:52:27.136Z,49.04
2022-12-18T15:55:09.988Z,49.04
2022-12-18T15:57:40.307Z,49.17
2022-12-18T16:00:17.337Z,49.25
2022-12-18T16:02:47.958Z,48.88
2022-12-18T16:05:21.303Z,48.96
2022-12-18T16:07:52.251Z,49.26
2022-12-18T16:10:22.989Z,49.21
2022-12-18T16:12:53.722Z,49.30
2022-12-18T16:15:26.686Z,49.83
2022-12-18T16:17:57.082Z,50.01
2022-12-18T16:20:27.459Z,50.50
2022-12-18T16:22:57.788Z,51.30
2022-12-18T16:25:31.280Z,51.71
2022-12-18T16:28:01.613Z,52.54
2022-12-18T16:30:38.493Z,52.50
2022-12-18T16:33:09.440Z,52.97
2022-12-18T16:35:40.096Z,53.48
2022-12-18T16:38:10.495Z,53.89
2022-12-18T16:41:03.692Z,54.24
2022-12-18T16:43:33.985Z,54.50
2022-12-18T16:46:06.960Z,54.93
2022-12-18T16:48:37.364Z,55.63
2022-12-18T16:51:09.207Z,55.78
2022-12-18T16:53:39.814Z,55.99
2022-12-18T16:56:10.756Z,56.47
2022-12-18T16:58:41.142Z,56.63
2022-12-18T17:01:15.762Z,56.78
2022-12-18T17:03:46.355Z,57.13
2022-12-18T17:06:17.631Z,56.96
2022-12-18T17:08:49.257Z,56.88
2022-12-18T17:11:19.567Z,57.34
2022-12-18T17:13:49.847Z,57.26
2022-12-18T17:16:23.385Z,56.71
2022-12-18T17:18:53.983Z,57.37
2022-12-18T17:21:24.489Z,57.29
2022-12-18T17:23:55.007Z,57.82
2022-12-18T17:26:25.361Z,57.56
2022-12-18T17:28:55.812Z,57.36
2022-12-18T17:31:31.785Z,57.07
2022-12-18T17:34:02.706Z,57.00
2022-12-18T17:36:34.010Z,56.79
2022-12-18T17:39:05.607Z,56.83
2022-12-18T17:41:36.463Z,56.71
2022-12-18T17:44:08.931Z,56.77
2022-12-18T17:46:42.307Z,56.48
2022-12-18T17:49:14.713Z,55.96
2022-12-18T17:51:45.696Z,56.25
2022-12-18T17:54:16.696Z,56.29
2022-12-18T17:56:47.030Z,55.58
2022-12-18T17:59:17.745Z,55.83
2022-12-18T18:01:52.170Z,55.48
2022-12-18T18:04:22.676Z,55.23
2022-12-18T18:06:53.003Z,54.94
2022-12-18T18:09:28.975Z,55.42
2022-12-18T18:12:38.181Z,54.71
2022-12-18T18:15:14.475Z,54.46
2022-12-18T18:17:59.305Z,53.62
2022-12-18T18:20:30.547Z,53.56
2022-12-18T18:23:04.408Z,54.55
2022-12-18T18:25:34.738Z,53.78
2022-12-18T18:28:11.447Z,52.99
2022-12-18T18:30:42.120Z,53.11
2022-12-18T18:33:15.317Z,52.46
2022-12-18T18:35:54.563Z,51.90
2022-12-18T18:38:34.440Z,51.91
2022-12-18T18:41:31.887Z,51.66
2022-12-18T18:44:16.243Z,51.80
2022-12-18T18:46:48.853Z,50.58
2022-12-18T18:49:40.708Z,50.71
2022-12-18T18:55:25.219Z,48.99
2022-12-18T19:01:01.357Z,47.95
2022-12-18T19:03:42.473Z,46.93
2022-12-18T19:06:23.899Z,47.14
2022-12-18T19:09:00.838Z,46.69
2022-12-18T19:11:46.783Z,46.16
2022-12-18T19:14:23.837Z,45.89
2022-12-18T19:16:57.006Z,45.72
2022-12-18T19:19:39.186Z,45.36
2022-12-18T19:22:19.204Z,44.63
2022-12-18T19:24:49.768Z,44.33
2022-12-18T19:27:26.925Z,43.95
2022-12-18T19:29:59.742Z,43.72
2022-12-18T19:32:33.163Z,43.45
2022-12-18T19:35:03.514Z,43.89
2022-12-18T19:37:40.367Z,43.64
2022-12-18T19:40:17.637Z,43.46
2022-12-18T19:42:56.360Z,43.04
2022-12-18T19:45:29.123Z,43.25
2022-12-18T19:48:04.442Z,43.25
2022-12-18T19:50:48.275Z,43.29
2022-12-18T19:53:25.578Z,43.35
2022-12-18T19:56:02.420Z,42.73
2022-12-18T19:58:45.289Z,42.16
2022-12-18T20:01:28.204Z,41.62
2022-12-18T20:04:02.884Z,41.70
2022-12-18T20:06:53.334Z,41.92
2022-12-18T20:09:43.506Z,41.67
2022-12-18T20:12:22.429Z,41.88
2022-12-18T20:14:55.120Z,41.41
2022-12-18T20:17:31.635Z,41.60
2022-12-18T20:20:04.254Z,41.69
2022-12-18T20:22:47.260Z,41.68
2022-12-18T20:25:21.751Z,41.36
2022-12-18T20:27:52.607Z,41.18
2022-12-18T20:30:24.039Z,40.35
2022-12-18T20:32:57.252Z,40.97
2022-12-18T20:35:33.750Z,41.62
2022-12-18T20:38:14.589Z,41.04
2022-12-18T20:40:56.720Z,41.57
2022-12-18T20:43:32.762Z,41.28
2022-12-18T20:46:51.383Z,41.27
2022-12-18T20:49:36.560Z,41.22
2022-12-18T20:52:16.915Z,41.26
2022-12-18T20:54:56.978Z,41.18
2022-12-18T20:57:35.801Z,41.32
2022-12-18T21:00:18.875Z,40.85
2022-12-18T21:02:55.621Z,41.30
2022-12-18T21:05:26.019Z,41.59
2022-12-18T21:08:02.466Z,41.61
2022-12-18T21:10:37.070Z,41.66
2022-12-18T21:13:13.688Z,41.60
2022-12-18T21:15:47.709Z,41.83
2022-12-18T21:18:22.266Z,41.82
2022-12-18T21:20:54.470Z,41.18
2022-12-18T21:23:26.720Z,41.38
2022-12-18T21:25:59.377Z,41.00
2022-12-18T21:28:32.288Z,40.79
2022-12-18T21:31:05.727Z,41.03
2022-12-18T21:33:37.864Z,40.22
2022-12-18T21:36:09.749Z,39.44
2022-12-18T21:38:40.236Z,39.55
2022-12-18T21:41:37.445Z,39.27
2022-12-18T21:44:14.386Z,39.51
2022-12-18T21:46:52.949Z,39.77
2022-12-18T21:49:26.286Z,39.56
2022-12-18T21:51:59.423Z,39.62
2022-12-18T21:54:31.754Z,39.56
2022-12-18T21:57:04.852Z,39.05
2022-12-18T21:59:40.006Z,38.81
2022-12-18T22:02:15.996Z,38.86
2022-12-18T22:04:47.746Z,38.83
2022-12-18T22:07:19.932Z,39.07
2022-12-18T22:09:50.259Z,38.74
2022-12-18T22:12:35.850Z,39.15
2022-12-18T22:15:21.792Z,39.66
2022-12-18T22:17:59.683Z,39.42
2022-12-18T22:20:30.806Z,39.62
2022-12-18T22:23:05.784Z,39.55
2022-12-18T22:25:39.280Z,40.00
2022-12-18T22:28:22.844Z,38.96
2022-12-18T22:30:59.058Z,38.70
2022-12-18T22:33:31.260Z,38.58
2022-12-18T22:36:07.898Z,38.48
2022-12-18T22:38:38.175Z,38.18
2022-12-18T22:41:08.930Z,37.54
2022-12-18T22:43:39.285Z,37.85
2022-12-18T22:46:18.735Z,37.91
2022-12-18T22:48:49.094Z,38.12
2022-12-18T22:51:21.332Z,38.12
2022-12-18T22:53:51.795Z,38.13
2022-12-18T22:56:22.188Z,37.80
2022-12-18T22:58:54.076Z,38.09
2022-12-18T23:01:30.639Z,38.08
2022-12-18T23:04:02.384Z,38.17
2022-12-18T23:06:32.812Z,37.72
2022-12-18T23:09:03.146Z,37.27
2022-12-18T23:11:33.602Z,37.19
2022-12-18T23:14:04.463Z,37.09
2022-12-18T23:16:37.998Z,36.97
2022-12-18T23:19:08.682Z,37.18
2022-12-18T23:21:39.429Z,37.03
2022-12-18T23:24:11.127Z,36.59
2022-12-18T23:26:41.709Z,35.67
2022-12-18T23:29:12.231Z,36.68
2022-12-18T23:31:45.839Z,36.42
2022-12-18T23:34:17.993Z,36.69
2022-12-18T23:36:50.935Z,37.05
2022-12-18T23:39:29.734Z,36.81
2022-12-18T23:42:00.749Z,37.08
2022-12-18T23:44:31.526Z,35.59
2022-12-18T23:47:04.595Z,35.06
2022-12-18T23:49:35.173Z,35.23
2022-12-18T23:52:05.975Z,35.53
2022-12-18T23:54:36.366Z,35.74
2022-12-18T23:57:09.165Z,35.58
2022-12-18T23:59:39.669Z,35.68
